createdAt,value
2018-05-18T00:01:35.841Z,100.00
2018-05-18T00:04:04.375Z,100.00
2018-05-18T00:06:33.031Z,100.00
2018-05-18T00:09:01.584Z,100.00
2018-05-18T00:11:30.276Z,100.00
2018-05-18T00:13:58.785Z,100.00
2018-05-18T00:16:27.329Z,100.00
2018-05-18T00:18:56.125Z,100.00
2018-05-18T00:21:24.652Z,100.00
2018-05-18T00:23:53.206Z,100.00
2018-05-18T00:26:22.092Z,100.00
2018-05-18T00:28:50.632Z,100.00
2018-05-18T00:31:19.168Z,100.00
2018-05-18T00:33:47.809Z,100.00
2018-05-18T00:36:16.356Z,100.00
2018-05-18T00:38:44.877Z,100.00
2018-05-18T00:41:13.529Z,100.00
2018-05-18T00:43:42.061Z,100.00
2018-05-18T00:46:10.601Z,100.00
2018-05-18T00:48:39.513Z,100.00
2018-05-18T00:51:08.047Z,100.00
2018-05-18T00:53:36.606Z,100.00
2018-05-18T00:56:05.130Z,100.00
2018-05-18T00:58:33.684Z,100.00
2018-05-18T01:01:02.251Z,100.00
2018-05-18T01:03:30.781Z,100.00
2018-05-18T01:05:59.343Z,100.00
2018-05-18T01:08:27.905Z,100.00
2018-05-18T01:10:56.425Z,100.00
2018-05-18T01:13:24.969Z,100.00
2018-05-18T01:15:53.562Z,100.00
2018-05-18T01:18:22.024Z,100.00
2018-05-18T01:20:50.705Z,100.00
2018-05-18T01:23:19.271Z,100.00
2018-05-18T01:25:47.804Z,100.00
2018-05-18T01:28:16.332Z,100.00
2018-05-18T01:30:44.876Z,100.00
2018-05-18T01:33:13.409Z,100.00
2018-05-18T01:35:42.028Z,100.00
2018-05-18T01:38:10.569Z,100.00
2018-05-18T01:40:39.142Z,100.00
2018-05-18T01:43:07.825Z,100.00
2018-05-18T01:45:36.363Z,100.00
2018-05-18T01:48:04.903Z,100.00
2018-05-18T01:50:33.437Z,100.00
2018-05-18T01:53:02.052Z,100.00
2018-05-18T01:55:30.672Z,100.00
2018-05-18T01:57:59.213Z,100.00
2018-05-18T02:00:27.749Z,100.00
2018-05-18T02:02:56.286Z,100.00
2018-05-18T02:05:24.810Z,100.00
2018-05-18T02:07:53.606Z,100.00
2018-05-18T02:10:22.121Z,100.00
2018-05-18T02:12:50.649Z,100.00
2018-05-18T02:15:19.343Z,100.00
2018-05-18T02:17:47.871Z,100.00
2018-05-18T02:20:16.400Z,100.00
2018-05-18T02:22:44.916Z,100.00
2018-05-18T02:25:13.452Z,100.00
2018-05-18T02:27:41.995Z,100.00
2018-05-18T02:30:10.538Z,100.00
2018-05-18T02:32:39.415Z,100.00
2018-05-18T02:35:07.909Z,100.00
2018-05-18T02:37:36.448Z,100.00
2018-05-18T02:40:05.257Z,100.00
2018-05-18T02:42:33.772Z,100.00
2018-05-18T02:45:02.301Z,100.00
2018-05-18T02:47:30.966Z,100.00
2018-05-18T02:49:59.492Z,100.00
2018-05-18T02:52:28.068Z,100.00
2018-05-18T02:54:56.694Z,100.00
2018-05-18T02:57:25.273Z,100.00
2018-05-18T02:59:53.788Z,100.00
2018-05-18T03:02:22.304Z,100.00
2018-05-18T03:04:51.056Z,100.00
2018-05-18T03:07:19.571Z,100.00
2018-05-18T03:09:49.525Z,100.00
2018-05-18T03:12:18.131Z,100.00
2018-05-18T03:14:47.566Z,100.00
2018-05-18T03:17:16.104Z,100.00
2018-05-18T03:19:44.716Z,100.00
2018-05-18T03:22:13.252Z,100.00
2018-05-18T03:24:41.773Z,100.00
2018-05-18T03:27:10.480Z,100.00
2018-05-18T03:29:39.019Z,100.00
2018-05-18T03:32:07.544Z,100.00
2018-05-18T03:34:36.208Z,100.00
2018-05-18T03:37:04.757Z,100.00
2018-05-18T03:39:33.284Z,100.00
2018-05-18T03:42:03.337Z,100.00
2018-05-18T03:44:31.885Z,100.00
2018-05-18T03:47:00.448Z,100.00
2018-05-18T03:49:29.931Z,100.00
2018-05-18T03:51:58.464Z,100.00
2018-05-18T03:54:27.005Z,100.00
2018-05-18T03:56:55.700Z,100.00
2018-05-18T03:59:24.234Z,100.00
2018-05-18T04:02:04.412Z,100.00
2018-05-18T04:04:45.845Z,100.00
2018-05-18T04:07:26.305Z,100.00
2018-05-18T04:09:55.344Z,100.00
2018-05-18T04:12:23.881Z,100.00
2018-05-18T04:14:52.425Z,100.00
2018-05-18T04:17:20.974Z,100.00
2018-05-18T04:19:49.549Z,100.00
2018-05-18T04:22:18.707Z,100.00
2018-05-18T04:24:47.217Z,100.00
2018-05-18T04:27:16.429Z,100.00
2018-05-18T04:29:44.971Z,100.00
2018-05-18T04:32:13.525Z,100.00
2018-05-18T04:34:42.089Z,100.00
2018-05-18T04:37:10.636Z,100.00
2018-05-18T04:39:39.173Z,100.00
2018-05-18T04:42:07.692Z,100.00
2018-05-18T04:44:37.316Z,100.00
2018-05-18T04:47:05.857Z,100.00
2018-05-18T04:49:34.391Z,100.00
2018-05-18T04:52:02.945Z,100.00
2018-05-18T04:54:31.472Z,100.00
2018-05-18T04:57:00.017Z,100.00
2018-05-18T04:59:28.543Z,100.00
2018-05-18T05:01:57.078Z,100.00
2018-05-18T05:04:25.607Z,100.00
2018-05-18T05:06:54.540Z,100.00
2018-05-18T05:09:23.068Z,100.00
2018-05-18T05:11:51.881Z,100.00
2018-05-18T05:14:20.429Z,100.00
2018-05-18T05:16:49.093Z,100.00
2018-05-18T05:19:17.628Z,100.00
2018-05-18T05:21:46.168Z,100.00
2018-05-18T05:24:14.702Z,100.00
2018-05-18T05:26:43.659Z,100.00
2018-05-18T05:29:12.173Z,100.00
2018-05-18T05:31:40.702Z,100.00
2018-05-18T05:34:09.242Z,100.00
2018-05-18T05:36:37.847Z,100.00
2018-05-18T05:39:06.325Z,100.00
2018-05-18T05:41:34.868Z,100.00
2018-05-18T05:44:03.749Z,100.00
2018-05-18T05:46:32.274Z,100.00
2018-05-18T05:49:01.941Z,100.00
2018-05-18T05:51:30.490Z,100.00
2018-05-18T05:53:59.339Z,100.00
2018-05-18T05:56:27.878Z,100.00
2018-05-18T05:58:56.514Z,100.00
2018-05-18T06:01:25.055Z,100.00
2018-05-18T06:03:54.482Z,100.00
2018-05-18T06:06:23.012Z,100.00
2018-05-18T06:08:51.556Z,100.00
2018-05-18T06:11:20.094Z,100.00
2018-05-18T06:13:48.741Z,100.00
2018-05-18T06:16:17.286Z,100.00
2018-05-18T06:18:45.950Z,98.97
2018-05-18T06:21:14.476Z,98.11
2018-05-18T06:23:43.000Z,98.11
2018-05-18T06:26:12.551Z,98.41
2018-05-18T06:28:41.154Z,96.87
2018-05-18T06:31:09.618Z,96.79
2018-05-18T06:33:38.146Z,95.75
2018-05-18T06:36:06.749Z,95.29
2018-05-18T06:38:36.472Z,95.74
2018-05-18T06:41:04.997Z,91.53
2018-05-18T06:43:33.556Z,92.42
2018-05-18T06:46:02.082Z,91.96
2018-05-18T06:48:31.181Z,90.84
2018-05-18T06:50:59.786Z,89.90
2018-05-18T06:53:28.373Z,91.75
2018-05-18T06:55:56.896Z,88.37
2018-05-18T06:58:25.450Z,89.74
2018-05-18T07:00:53.973Z,86.87
2018-05-18T07:03:22.568Z,87.62
2018-05-18T07:05:51.064Z,83.68
2018-05-18T07:08:19.658Z,85.29
2018-05-18T07:10:48.199Z,87.88
2018-05-18T07:13:18.087Z,87.26
2018-05-18T07:15:46.720Z,83.16
2018-05-18T07:18:15.853Z,82.46
2018-05-18T07:20:44.381Z,82.43
2018-05-18T07:23:13.641Z,82.76
2018-05-18T07:25:42.166Z,83.37
2018-05-18T07:28:11.440Z,82.35
2018-05-18T07:30:39.957Z,80.63
2018-05-18T07:33:09.009Z,78.24
2018-05-18T07:35:37.528Z,79.03
2018-05-18T07:38:06.445Z,77.39
2018-05-18T07:40:35.006Z,72.85
2018-05-18T07:43:03.925Z,80.23
2018-05-18T07:45:33.400Z,80.68
2018-05-18T07:48:03.006Z,81.01
2018-05-18T07:50:31.540Z,75.60
2018-05-18T07:53:00.085Z,80.75
2018-05-18T07:55:28.630Z,75.79
2018-05-18T07:57:57.589Z,79.67
2018-05-18T08:00:26.092Z,77.34
2018-05-18T08:02:55.161Z,78.09
2018-05-18T08:05:23.699Z,72.10
2018-05-18T08:07:52.894Z,77.81
2018-05-18T08:10:21.328Z,72.54
2018-05-18T08:12:50.428Z,70.08
2018-05-18T08:15:18.968Z,73.88
2018-05-18T08:17:48.156Z,72.23
2018-05-18T08:20:16.684Z,72.55
2018-05-18T08:22:46.578Z,69.82
2018-05-18T08:25:15.128Z,72.32
2018-05-18T08:27:43.706Z,71.73
2018-05-18T08:30:12.172Z,69.11
2018-05-18T08:32:40.717Z,70.76
2018-05-18T08:35:09.253Z,69.15
2018-05-18T08:37:37.777Z,67.92
2018-05-18T08:40:06.331Z,67.36
2018-05-18T08:42:34.855Z,67.73
2018-05-18T08:45:03.576Z,65.38
2018-05-18T08:47:32.103Z,65.61
2018-05-18T08:50:01.499Z,71.59
2018-05-18T08:52:29.911Z,70.23
2018-05-18T08:54:58.958Z,64.87
2018-05-18T08:57:27.497Z,63.53
2018-05-18T08:59:58.669Z,67.02
2018-05-18T09:02:27.201Z,61.90
2018-05-18T09:04:56.349Z,57.70
2018-05-18T09:07:24.875Z,63.21
2018-05-18T09:09:54.399Z,57.38
2018-05-18T09:12:22.917Z,59.22
2018-05-18T09:14:52.211Z,59.55
2018-05-18T09:17:20.727Z,52.86
2018-05-18T09:19:49.972Z,51.45
2018-05-18T09:22:18.494Z,48.85
2018-05-18T09:24:47.954Z,48.38
2018-05-18T09:27:16.463Z,40.82
2018-05-18T09:29:46.358Z,44.00
2018-05-18T09:32:14.897Z,40.28
2018-05-18T09:34:44.161Z,41.19
2018-05-18T09:37:12.717Z,44.60
2018-05-18T09:39:41.995Z,57.99
2018-05-18T09:42:10.492Z,44.27
2018-05-18T09:44:39.572Z,51.43
2018-05-18T09:47:08.097Z,51.59
2018-05-18T09:49:37.536Z,52.79
2018-05-18T09:52:06.057Z,52.09
2018-05-18T09:54:35.642Z,62.03
2018-05-18T09:57:04.048Z,51.49
2018-05-18T09:59:33.945Z,44.33
2018-05-18T10:02:02.465Z,39.61
2018-05-18T10:04:31.716Z,42.34
2018-05-18T10:07:00.350Z,37.02
2018-05-18T10:09:29.812Z,40.52
2018-05-18T10:11:58.312Z,36.09
2018-05-18T10:14:27.282Z,37.05
2018-05-18T10:16:55.794Z,34.06
2018-05-18T10:19:24.395Z,34.76
2018-05-18T10:21:52.861Z,30.28
2018-05-18T10:24:21.407Z,37.97
2018-05-18T10:26:50.356Z,37.95
2018-05-18T10:29:18.876Z,31.46
2018-05-18T10:31:48.147Z,34.30
2018-05-18T10:34:16.656Z,28.92
2018-05-18T10:36:45.721Z,30.38
2018-05-18T10:39:14.244Z,32.07
2018-05-18T10:41:43.505Z,38.86
2018-05-18T10:44:12.044Z,38.67
2018-05-18T10:46:41.202Z,39.68
2018-05-18T10:49:09.728Z,39.97
2018-05-18T10:51:38.924Z,39.74
2018-05-18T10:54:07.458Z,35.62
2018-05-18T10:56:36.612Z,34.69
2018-05-18T10:59:05.152Z,32.99
2018-05-18T11:01:34.869Z,31.51
2018-05-18T11:04:03.364Z,28.64
2018-05-18T11:06:32.345Z,29.50
2018-05-18T11:09:00.961Z,31.91
2018-05-18T11:11:30.204Z,30.72
2018-05-18T11:13:58.754Z,34.01
2018-05-18T11:16:27.262Z,30.64
2018-05-18T11:18:55.838Z,29.86
2018-05-18T11:21:24.943Z,30.70
2018-05-18T11:23:53.481Z,32.32
2018-05-18T11:26:22.709Z,33.94
2018-05-18T11:28:51.144Z,31.06
2018-05-18T11:31:20.244Z,29.41
2018-05-18T11:33:48.785Z,26.29
2018-05-18T11:36:18.054Z,29.58
2018-05-18T11:38:46.569Z,28.29
2018-05-18T11:41:16.521Z,26.49
2018-05-18T11:43:45.059Z,25.85
2018-05-18T11:46:14.045Z,26.71
2018-05-18T11:48:42.564Z,25.16
2018-05-18T11:51:12.193Z,23.07
2018-05-18T11:53:40.784Z,25.28
2018-05-18T11:56:09.772Z,23.16
2018-05-18T11:58:38.293Z,27.51
2018-05-18T12:01:07.368Z,28.48
2018-05-18T12:03:35.902Z,26.40
2018-05-18T12:06:05.027Z,25.06
2018-05-18T12:08:33.641Z,24.35
2018-05-18T12:11:02.461Z,25.80
2018-05-18T12:13:31.017Z,24.94
2018-05-18T12:15:59.589Z,25.51
2018-05-18T12:18:28.129Z,24.02
2018-05-18T12:20:56.744Z,27.61
2018-05-18T12:23:25.243Z,28.25
2018-05-18T12:25:54.109Z,28.42
2018-05-18T12:28:22.632Z,27.37
2018-05-18T12:30:51.726Z,26.03
2018-05-18T12:33:20.270Z,25.48
2018-05-18T12:35:48.801Z,22.85
2018-05-18T12:38:17.415Z,21.92
2018-05-18T12:40:45.958Z,21.27
2018-05-18T12:43:14.481Z,23.20
2018-05-18T12:45:43.010Z,23.95
2018-05-18T12:48:11.573Z,28.12
2018-05-18T12:50:40.118Z,30.22
2018-05-18T12:53:08.660Z,30.66
2018-05-18T12:55:38.237Z,32.12
2018-05-18T12:58:07.751Z,34.04
2018-05-18T13:00:37.192Z,36.06
2018-05-18T13:03:06.673Z,33.84
2018-05-18T13:05:35.206Z,29.82
2018-05-18T13:08:03.772Z,28.20
2018-05-18T13:10:33.238Z,26.17
2018-05-18T13:13:01.760Z,24.11
2018-05-18T13:15:30.713Z,25.17
2018-05-18T13:17:59.260Z,23.86
2018-05-18T13:20:28.373Z,25.01
2018-05-18T13:22:56.909Z,24.73
2018-05-18T13:25:25.753Z,26.14
2018-05-18T13:27:54.297Z,26.41
2018-05-18T13:30:23.305Z,25.23
2018-05-18T13:32:51.829Z,23.91
2018-05-18T13:35:20.618Z,24.22
2018-05-18T13:37:49.157Z,24.32
2018-05-18T13:40:18.175Z,27.04
2018-05-18T13:42:46.732Z,25.72
2018-05-18T13:45:15.265Z,24.44
2018-05-18T13:47:43.805Z,27.49
2018-05-18T13:50:12.325Z,25.29
2018-05-18T13:52:41.915Z,26.11
2018-05-18T13:55:13.871Z,24.15
2018-05-18T13:57:45.637Z,24.23
2018-05-18T14:00:16.662Z,24.37
2018-05-18T14:02:49.183Z,22.91
2018-05-18T14:05:20.111Z,23.08
2018-05-18T14:07:48.780Z,22.52
2018-05-18T14:10:17.329Z,22.75
2018-05-18T14:12:46.707Z,25.73
2018-05-18T14:15:15.251Z,23.48
2018-05-18T14:17:43.785Z,23.33
2018-05-18T14:20:12.321Z,22.16
2018-05-18T14:22:40.861Z,21.92
2018-05-18T14:25:09.842Z,23.88
2018-05-18T14:27:38.358Z,25.98
2018-05-18T14:30:07.405Z,25.87
2018-05-18T14:32:35.949Z,24.49
2018-05-18T14:35:04.820Z,22.35
2018-05-18T14:37:33.446Z,21.97
2018-05-18T14:40:01.938Z,23.10
2018-05-18T14:42:30.464Z,23.18
2018-05-18T14:44:58.988Z,23.75
2018-05-18T14:47:27.582Z,26.27
2018-05-18T14:49:56.120Z,27.04
2018-05-18T14:52:24.949Z,25.62
2018-05-18T14:54:53.578Z,25.92
2018-05-18T14:57:23.340Z,25.71
2018-05-18T14:59:51.877Z,24.61
2018-05-18T15:02:20.405Z,24.21
2018-05-18T15:04:48.934Z,25.19
2018-05-18T15:07:17.465Z,23.60
2018-05-18T15:09:46.034Z,24.11
2018-05-18T15:12:14.569Z,23.73
2018-05-18T15:14:43.094Z,22.98
2018-05-18T15:17:11.650Z,22.61
2018-05-18T15:19:40.564Z,26.08
2018-05-18T15:22:09.169Z,25.42
2018-05-18T15:24:37.800Z,24.03
2018-05-18T15:27:06.321Z,25.59
2018-05-18T15:29:35.415Z,24.05
2018-05-18T15:32:03.953Z,23.89
2018-05-18T15:34:32.982Z,22.72
2018-05-18T15:37:01.517Z,23.17
2018-05-18T15:39:30.485Z,23.26
2018-05-18T15:41:59.015Z,23.61
2018-05-18T15:44:27.896Z,22.42
2018-05-18T15:46:56.422Z,23.19
2018-05-18T15:49:25.065Z,23.02
2018-05-18T15:51:53.480Z,23.87
2018-05-18T15:54:22.026Z,23.94
2018-05-18T15:56:50.854Z,23.18
2018-05-18T15:59:19.410Z,22.97
2018-05-18T16:01:48.641Z,23.16
2018-05-18T16:04:17.211Z,23.48
2018-05-18T16:06:45.717Z,24.62
2018-05-18T16:09:14.263Z,24.19
2018-05-18T16:11:42.801Z,26.00
2018-05-18T16:14:11.328Z,28.85
2018-05-18T16:16:39.873Z,32.45
2018-05-18T16:19:09.090Z,31.37
2018-05-18T16:21:37.613Z,31.79
2018-05-18T16:24:06.134Z,35.75
2018-05-18T16:26:34.669Z,35.55
2018-05-18T16:29:03.208Z,37.31
2018-05-18T16:31:31.750Z,39.24
2018-05-18T16:34:00.279Z,38.95
2018-05-18T16:36:29.660Z,37.42
2018-05-18T16:38:58.247Z,38.49
2018-05-18T16:41:27.157Z,41.89
2018-05-18T16:43:55.693Z,40.91
2018-05-18T16:46:24.260Z,41.90
2018-05-18T16:48:52.742Z,43.30
2018-05-18T16:51:21.272Z,38.27
2018-05-18T16:53:50.923Z,44.40
2018-05-18T16:56:19.484Z,45.78
2018-05-18T16:58:48.273Z,44.88
2018-05-18T17:01:16.813Z,47.59
2018-05-18T17:03:45.340Z,45.51
2018-05-18T17:06:13.870Z,45.48
2018-05-18T17:08:42.404Z,46.92
2018-05-18T17:11:10.933Z,47.63
2018-05-18T17:13:39.464Z,45.64
2018-05-18T17:16:08.004Z,45.78
2018-05-18T17:18:36.530Z,51.07
2018-05-18T17:21:05.560Z,49.23
2018-05-18T17:23:34.106Z,50.28
2018-05-18T17:26:03.268Z,52.67
2018-05-18T17:28:31.778Z,52.63
2018-05-18T17:31:00.307Z,52.70
2018-05-18T17:33:28.854Z,53.18
2018-05-18T17:35:57.379Z,53.92
2018-05-18T17:38:26.198Z,53.56
2018-05-18T17:40:54.796Z,51.38
2018-05-18T17:43:23.455Z,53.28
2018-05-18T17:45:52.001Z,51.99
2018-05-18T17:48:20.523Z,52.73
2018-05-18T17:50:49.168Z,50.33
2018-05-18T17:53:17.777Z,48.95
2018-05-18T17:55:46.699Z,53.50
2018-05-18T17:58:15.233Z,49.96
2018-05-18T18:00:43.854Z,50.62
2018-05-18T18:03:12.329Z,50.95
2018-05-18T18:05:40.862Z,51.28
2018-05-18T18:08:09.856Z,50.47
2018-05-18T18:10:39.316Z,50.88
2018-05-18T18:13:07.837Z,49.24
2018-05-18T18:15:36.373Z,50.48
2018-05-18T18:18:05.637Z,54.28
2018-05-18T18:20:34.280Z,53.25
2018-05-18T18:23:02.818Z,51.43
2018-05-18T18:25:31.397Z,57.70
2018-05-18T18:28:00.072Z,54.95
2018-05-18T18:30:28.875Z,55.87
2018-05-18T18:32:57.400Z,51.89
2018-05-18T18:35:26.063Z,57.96
2018-05-18T18:37:54.609Z,57.29
2018-05-18T18:40:23.128Z,60.34
2018-05-18T18:42:51.881Z,61.66
2018-05-18T18:45:20.498Z,63.91
2018-05-18T18:47:49.041Z,61.53
2018-05-18T18:50:17.681Z,65.94
2018-05-18T18:52:46.197Z,65.77
2018-05-18T18:55:15.672Z,60.58
2018-05-18T18:57:44.204Z,60.75
2018-05-18T19:00:12.755Z,60.89
2018-05-18T19:02:41.277Z,59.88
2018-05-18T19:05:10.096Z,63.67
2018-05-18T19:07:38.648Z,62.96
2018-05-18T19:10:07.172Z,64.99
2018-05-18T19:12:35.969Z,75.58
2018-05-18T19:15:04.493Z,73.09
2018-05-18T19:17:33.027Z,72.74
2018-05-18T19:20:01.555Z,70.11
2018-05-18T19:22:30.073Z,68.46
2018-05-18T19:24:58.605Z,71.26
2018-05-18T19:27:27.161Z,66.84
2018-05-18T19:29:56.841Z,70.87
2018-05-18T19:32:25.388Z,69.44
2018-05-18T19:34:53.913Z,68.34
2018-05-18T19:37:22.644Z,70.63
2018-05-18T19:39:51.156Z,67.87
2018-05-18T19:42:19.687Z,74.45
2018-05-18T19:44:48.500Z,74.06
2018-05-18T19:47:17.007Z,75.38
2018-05-18T19:49:45.538Z,69.54
2018-05-18T19:52:14.086Z,74.80
2018-05-18T19:54:42.836Z,78.48
2018-05-18T19:57:11.433Z,76.69
2018-05-18T19:59:39.960Z,77.99
2018-05-18T20:02:08.700Z,77.81
2018-05-18T20:04:37.229Z,80.25
2018-05-18T20:07:05.757Z,84.85
2018-05-18T20:09:34.324Z,83.63
2018-05-18T20:12:02.952Z,81.07
2018-05-18T20:14:31.409Z,84.26
2018-05-18T20:17:00.664Z,79.24
2018-05-18T20:19:29.251Z,76.05
2018-05-18T20:21:57.776Z,82.54
2018-05-18T20:24:26.452Z,81.49
2018-05-18T20:26:54.989Z,83.98
2018-05-18T20:29:23.545Z,83.35
2018-05-18T20:31:52.192Z,81.76
2018-05-18T20:34:20.731Z,78.00
2018-05-18T20:36:49.291Z,78.64
2018-05-18T20:39:17.829Z,77.19
2018-05-18T20:41:46.355Z,75.93
2018-05-18T20:44:14.905Z,76.76
2018-05-18T20:46:43.420Z,78.81
2018-05-18T20:49:12.014Z,78.78
2018-05-18T20:51:41.564Z,81.66
2018-05-18T20:54:10.048Z,84.17
2018-05-18T20:56:38.894Z,78.90
2018-05-18T20:59:07.432Z,78.46
2018-05-18T21:01:35.977Z,78.20
2018-05-18T21:04:04.499Z,77.23
2018-05-18T21:06:33.035Z,78.52
2018-05-18T21:09:01.556Z,80.00
2018-05-18T21:11:30.273Z,81.25
2018-05-18T21:13:58.903Z,79.29
2018-05-18T21:16:27.411Z,81.40
2018-05-18T21:18:56.036Z,81.64
2018-05-18T21:21:24.611Z,82.84
2018-05-18T21:23:53.117Z,81.50
2018-05-18T21:26:21.687Z,81.64
2018-05-18T21:28:50.202Z,81.07
2018-05-18T21:31:18.749Z,81.73
2018-05-18T21:33:47.280Z,80.04
2018-05-18T21:36:15.793Z,79.90
2018-05-18T21:38:44.327Z,78.92
2018-05-18T21:41:12.850Z,79.02
2018-05-18T21:43:41.386Z,80.30
2018-05-18T21:46:09.910Z,86.57
2018-05-18T21:48:38.455Z,86.88
2018-05-18T21:51:07.481Z,84.54
2018-05-18T21:53:40.407Z,82.94
2018-05-18T21:56:16.571Z,83.20
2018-05-18T21:58:45.761Z,81.28
2018-05-18T22:01:14.298Z,81.19
2018-05-18T22:03:42.821Z,80.25
2018-05-18T22:06:11.386Z,82.18
2018-05-18T22:08:39.901Z,83.26
2018-05-18T22:11:08.445Z,88.01
2018-05-18T22:13:36.977Z,89.29
2018-05-18T22:16:05.508Z,87.66
2018-05-18T22:18:34.029Z,91.66
2018-05-18T22:21:02.620Z,91.83
2018-05-18T22:23:31.124Z,89.93
2018-05-18T22:25:59.647Z,86.91
2018-05-18T22:28:28.180Z,86.12
2018-05-18T22:30:56.708Z,85.97
2018-05-18T22:33:25.253Z,85.79
2018-05-18T22:35:54.031Z,89.77
2018-05-18T22:38:22.579Z,91.19
2018-05-18T22:40:51.103Z,89.19
2018-05-18T22:43:19.626Z,87.18
2018-05-18T22:45:48.355Z,91.11
2018-05-18T22:48:16.840Z,92.95
2018-05-18T22:50:45.387Z,90.25
2018-05-18T22:53:14.146Z,87.93
2018-05-18T22:55:42.667Z,87.69
2018-05-18T22:58:11.207Z,86.75
2018-05-18T23:00:39.966Z,88.44
2018-05-18T23:03:08.496Z,87.29
2018-05-18T23:05:37.014Z,86.84
2018-05-18T23:08:06.137Z,85.89
2018-05-18T23:10:34.671Z,86.18
2018-05-18T23:13:03.197Z,89.37
2018-05-18T23:15:31.718Z,89.96
2018-05-18T23:18:00.500Z,90.98
2018-05-18T23:20:28.994Z,89.44
2018-05-18T23:22:57.512Z,87.82
2018-05-18T23:25:26.078Z,86.80
2018-05-18T23:27:54.572Z,87.87
2018-05-18T23:30:23.081Z,87.27
2018-05-18T23:32:51.737Z,86.55
2018-05-18T23:35:20.253Z,86.58
2018-05-18T23:37:48.780Z,90.65
2018-05-18T23:40:17.439Z,92.64
2018-05-18T23:42:45.957Z,91.20
2018-05-18T23:45:14.502Z,90.66
2018-05-18T23:47:43.012Z,89.91
2018-05-18T23:50:11.532Z,88.28
2018-05-18T23:52:40.060Z,90.86
2018-05-18T23:55:10.565Z,88.20
2018-05-18T23:57:39.548Z,91.10
